トビリシ の空港の天気 - METARとTAF

トビリシ国際空港 ( UGTB / TBS ) - グルジア トビリシ
飛行場実況気象(Metar)
観測時間03/29 01:00 +04 (03/28 21:00 UTC)
風向・風速北北西 13m/s
視程10km以上
天気現象
なし
気温5℃
湿度65%
気圧1021hPa
METARUGTB 282100Z 33025KT CAVOK 05/M01 Q1021 R31L/CLRD70 NOSIG
過去の天気等 Google飛行場航空写真 Wunderground天気予報

過去48時間のMETAR

飛行場予報(TAF)
発表時間: 3/28 21:00 +04 (3/28 17:00 UTC)
予報対象時間: 28日22時 +04 ~ 29日22時 +04
風向・風速北西 14m/s
視程10km以上
なし
28日22時 +04 ~ 29日2時 +04 に一時的に
風向・風速北西 16m/s 瞬間風速 22m/s
29日11時 +04 ~ 29日19時 +04 に一時的に
風向・風速北西 18m/s 瞬間風速 23m/s
TAF COR UGTB 281700Z 2818/2918 32027KT 9999 NSC TX13/2912Z TN03/2902Z
TEMPO 2818/2822 32032G42KT
TEMPO 2907/2915 32035G45KT